createdAt,value
2019-04-27T00:00:00.304Z,12.70
2019-04-27T00:02:55.871Z,12.70
2019-04-27T00:05:44.644Z,12.60
2019-04-27T00:08:38.971Z,12.60
2019-04-27T00:11:30.298Z,12.50
2019-04-27T00:13:56.558Z,12.40
2019-04-27T00:16:47.005Z,12.20
2019-04-27T00:19:23.300Z,12.20
2019-04-27T00:22:03.166Z,12.10
2019-04-27T00:24:28.652Z,12.10
2019-04-27T00:26:54.151Z,12.10
2019-04-27T00:29:20.582Z,12.00
2019-04-27T00:31:46.799Z,12.00
2019-04-27T00:34:13.329Z,11.90
2019-04-27T00:36:47.070Z,11.90
2019-04-27T00:39:30.184Z,11.90
2019-04-27T00:41:55.601Z,11.90
2019-04-27T00:44:21.018Z,11.90
2019-04-27T00:46:46.462Z,11.90
2019-04-27T00:49:13.662Z,11.80
2019-04-27T00:51:38.982Z,11.80
2019-04-27T00:54:04.716Z,11.80
2019-04-27T00:56:54.998Z,11.80
2019-04-27T00:59:43.156Z,11.90
2019-04-27T01:02:20.918Z,11.90
2019-04-27T01:04:46.266Z,11.90
2019-04-27T01:07:11.720Z,11.90
2019-04-27T01:09:37.518Z,12.00
2019-04-27T01:12:03.633Z,12.00
2019-04-27T01:14:29.519Z,12.00
2019-04-27T01:16:54.885Z,12.00
2019-04-27T01:19:20.245Z,12.00
2019-04-27T01:21:45.621Z,12.00
2019-04-27T01:24:10.982Z,11.90
2019-04-27T01:26:49.840Z,11.90
2019-04-27T01:29:19.199Z,11.90
2019-04-27T01:31:44.423Z,11.90
2019-04-27T01:34:09.774Z,11.90
2019-04-27T01:36:35.137Z,11.90
2019-04-27T01:39:00.518Z,11.90
2019-04-27T01:41:29.071Z,11.90
2019-04-27T01:43:54.513Z,12.00
2019-04-27T01:46:19.862Z,12.00
2019-04-27T01:48:45.218Z,12.00
2019-04-27T01:51:10.593Z,12.00
2019-04-27T01:53:35.946Z,12.00
2019-04-27T01:56:01.426Z,12.00
2019-04-27T01:58:26.783Z,12.00
2019-04-27T02:01:06.620Z,12.00
2019-04-27T02:03:52.753Z,12.00
2019-04-27T02:06:19.075Z,12.00
2019-04-27T02:08:45.187Z,12.00
2019-04-27T02:11:11.581Z,12.10
2019-04-27T02:13:38.468Z,12.10
2019-04-27T02:16:04.001Z,12.10
2019-04-27T02:18:37.620Z,12.00
2019-04-27T02:20:56.366Z,12.00
2019-04-27T02:23:21.849Z,12.00
2019-04-27T02:25:47.212Z,12.00
2019-04-27T02:28:29.334Z,12.00
2019-04-27T02:31:19.316Z,11.90
2019-04-27T02:33:50.068Z,11.90
2019-04-27T02:36:15.622Z,11.90
2019-04-27T02:38:40.981Z,11.90
2019-04-27T02:41:10.007Z,11.80
2019-04-27T02:43:59.667Z,11.80
2019-04-27T02:46:24.094Z,11.80
2019-04-27T02:48:56.732Z,11.80
2019-04-27T02:51:21.937Z,11.80
2019-04-27T02:53:54.200Z,11.70
2019-04-27T02:56:20.312Z,11.70
2019-04-27T02:58:45.930Z,11.70
2019-04-27T03:01:11.326Z,11.70
2019-04-27T03:03:36.682Z,11.60
2019-04-27T03:06:02.094Z,11.60
2019-04-27T03:08:29.435Z,11.60
2019-04-27T03:10:54.932Z,11.50
2019-04-27T03:13:33.046Z,11.50
2019-04-27T03:16:20.448Z,11.50
2019-04-27T03:19:17.741Z,11.60
2019-04-27T03:21:54.182Z,11.50
2019-04-27T03:24:23.037Z,11.50
2019-04-27T03:26:53.644Z,11.60
2019-04-27T03:29:20.208Z,11.60
2019-04-27T03:31:47.137Z,11.60
2019-04-27T03:34:16.415Z,11.50
2019-04-27T03:36:40.245Z,11.60
2019-04-27T03:39:10.149Z,11.50
2019-04-27T03:41:35.346Z,11.50
2019-04-27T03:44:00.695Z,11.50
2019-04-27T03:46:26.072Z,11.50
2019-04-27T03:48:51.413Z,11.50
2019-04-27T03:51:29.980Z,11.50
2019-04-27T03:54:06.784Z,11.50
2019-04-27T03:56:39.523Z,11.50
2019-04-27T03:59:25.245Z,11.50
2019-04-27T04:01:50.732Z,11.50
2019-04-27T04:04:16.103Z,11.50
2019-04-27T04:06:41.583Z,11.50
2019-04-27T04:09:10.325Z,11.50
2019-04-27T04:11:54.853Z,11.40
2019-04-27T04:14:21.586Z,11.40
2019-04-27T04:16:59.042Z,11.40
2019-04-27T04:19:22.778Z,11.40
2019-04-27T04:21:50.382Z,11.40
2019-04-27T04:24:15.272Z,11.40
2019-04-27T04:26:40.620Z,11.40
2019-04-27T04:29:06.072Z,11.40
2019-04-27T04:31:33.242Z,11.40
2019-04-27T04:33:59.675Z,11.40
2019-04-27T04:36:25.417Z,11.40
2019-04-27T04:38:50.767Z,11.40
2019-04-27T04:41:22.423Z,11.40
2019-04-27T04:44:04.078Z,11.40
2019-04-27T04:47:03.977Z,11.40
2019-04-27T04:49:29.680Z,11.40
2019-04-27T04:51:59.250Z,11.50
2019-04-27T04:54:24.954Z,11.50
2019-04-27T04:56:50.307Z,11.50
2019-04-27T04:59:15.694Z,11.50
2019-04-27T05:01:41.034Z,11.50
2019-04-27T05:04:06.466Z,11.50
2019-04-27T05:06:31.823Z,11.50
2019-04-27T05:08:57.229Z,11.60
2019-04-27T05:11:22.570Z,11.60
2019-04-27T05:13:49.444Z,11.60
2019-04-27T05:16:14.958Z,11.70
2019-04-27T05:18:40.307Z,11.70
2019-04-27T05:21:15.073Z,11.70
2019-04-27T05:23:40.443Z,11.80
2019-04-27T05:26:05.986Z,11.80
2019-04-27T05:28:31.365Z,11.80
2019-04-27T05:30:56.722Z,11.80
2019-04-27T05:33:22.110Z,11.90
2019-04-27T05:35:49.179Z,11.90
2019-04-27T05:38:14.433Z,12.00
2019-04-27T05:40:40.039Z,12.00
2019-04-27T05:43:05.466Z,12.00
2019-04-27T05:46:46.448Z,12.00
2019-04-27T05:49:18.840Z,12.00
2019-04-27T05:51:44.365Z,12.10
2019-04-27T05:54:09.705Z,12.10
2019-04-27T05:56:35.182Z,12.10
2019-04-27T05:59:00.579Z,12.10
2019-04-27T06:01:26.963Z,12.20
2019-04-27T06:03:52.345Z,12.20
2019-04-27T06:06:19.601Z,12.30
2019-04-27T06:08:44.854Z,12.40
2019-04-27T06:11:10.209Z,12.40
2019-04-27T06:13:35.574Z,12.50
2019-04-27T06:16:00.982Z,12.50
2019-04-27T06:18:26.334Z,12.60
2019-04-27T06:20:55.729Z,12.60
2019-04-27T06:23:20.864Z,12.70
2019-04-27T06:25:45.701Z,12.60
2019-04-27T06:28:11.085Z,12.80
2019-04-27T06:30:36.455Z,12.80
2019-04-27T06:33:01.855Z,12.90
2019-04-27T06:35:28.764Z,13.00
2019-04-27T06:37:55.396Z,13.10
2019-04-27T06:40:20.784Z,13.00
2019-04-27T06:42:46.145Z,13.10
2019-04-27T06:45:11.510Z,13.20
2019-04-27T06:47:39.579Z,13.30
2019-04-27T06:50:04.033Z,13.40
2019-04-27T06:52:29.459Z,13.60
2019-04-27T06:54:54.898Z,13.70
2019-04-27T06:57:20.262Z,13.70
2019-04-27T06:59:45.654Z,13.70
2019-04-27T07:02:11.093Z,13.80
2019-04-27T07:04:36.480Z,13.80
2019-04-27T07:07:01.877Z,13.80
2019-04-27T07:09:27.304Z,14.00
2019-04-27T07:11:52.678Z,14.10
2019-04-27T07:14:19.609Z,14.10
2019-04-27T07:16:45.049Z,14.20
2019-04-27T07:19:10.414Z,14.30
2019-04-27T07:21:35.869Z,14.50
2019-04-27T07:24:01.233Z,14.60
2019-04-27T07:26:29.995Z,14.60
2019-04-27T07:28:55.091Z,14.70
2019-04-27T07:31:20.442Z,14.80
2019-04-27T07:33:46.274Z,14.80
2019-04-27T07:36:11.637Z,15.00
2019-04-27T07:38:39.470Z,15.10
2019-04-27T07:41:06.114Z,15.10
2019-04-27T07:43:39.743Z,15.10
2019-04-27T07:46:05.178Z,15.20
2019-04-27T07:48:30.535Z,15.20
2019-04-27T07:50:56.002Z,15.40
2019-04-27T07:53:21.362Z,15.40
2019-04-27T07:55:46.720Z,15.60
2019-04-27T07:58:12.491Z,15.70
2019-04-27T08:00:39.438Z,15.80
2019-04-27T08:03:06.030Z,16.00
2019-04-27T08:05:31.434Z,16.10
2019-04-27T08:07:56.909Z,16.30
2019-04-27T08:10:22.534Z,16.40
2019-04-27T08:12:49.846Z,16.50
2019-04-27T08:15:16.005Z,16.50
2019-04-27T08:17:42.886Z,16.50
2019-04-27T08:20:09.281Z,16.50
2019-04-27T08:22:34.885Z,16.50
2019-04-27T08:25:00.218Z,16.50
2019-04-27T08:27:47.236Z,16.50
2019-04-27T08:30:40.795Z,16.60
2019-04-27T08:33:09.127Z,16.70
2019-04-27T08:35:34.590Z,16.70
2019-04-27T08:37:59.974Z,16.80
2019-04-27T08:40:25.366Z,16.60
2019-04-27T08:42:51.271Z,16.40
2019-04-27T08:45:16.877Z,16.50
2019-04-27T08:47:42.235Z,16.60
2019-04-27T08:50:09.111Z,16.80
2019-04-27T08:52:34.586Z,16.90
2019-04-27T08:54:59.962Z,17.10
2019-04-27T08:57:25.456Z,17.20
2019-04-27T08:59:51.091Z,17.40
2019-04-27T09:02:16.694Z,17.50
2019-04-27T09:04:42.060Z,17.60
2019-04-27T09:07:25.163Z,17.80
2019-04-27T09:09:53.814Z,17.90
2019-04-27T09:12:36.694Z,18.20
2019-04-27T09:15:10.009Z,18.30
2019-04-27T09:17:44.446Z,18.60
2019-04-27T09:20:21.045Z,18.70
2019-04-27T09:22:46.387Z,18.60
2019-04-27T09:25:11.801Z,18.80
2019-04-27T09:27:38.949Z,18.80
2019-04-27T09:30:05.530Z,18.90
2019-04-27T09:32:30.985Z,18.90
2019-04-27T09:34:57.293Z,19.00
2019-04-27T09:37:23.762Z,19.10
2019-04-27T09:39:49.133Z,19.30
2019-04-27T09:42:14.506Z,19.40
2019-04-27T09:44:39.902Z,19.60
2019-04-27T09:47:06.095Z,19.70
2019-04-27T09:49:31.713Z,19.60
2019-04-27T09:51:57.106Z,19.50
2019-04-27T09:54:23.772Z,19.20
2019-04-27T09:56:49.363Z,19.50
2019-04-27T09:59:16.005Z,19.20
2019-04-27T10:01:41.408Z,19.40
2019-04-27T10:04:06.892Z,19.30
2019-04-27T10:06:32.247Z,19.50
2019-04-27T10:08:58.506Z,19.60
2019-04-27T10:11:23.858Z,19.80
2019-04-27T10:13:49.223Z,19.90
2019-04-27T10:16:14.598Z,19.90
2019-04-27T10:18:39.999Z,20.10
2019-04-27T10:21:06.379Z,20.30
2019-04-27T10:23:32.966Z,20.20
2019-04-27T10:25:58.324Z,20.30
2019-04-27T10:28:23.713Z,20.50
2019-04-27T10:30:49.098Z,20.70
2019-04-27T10:33:16.103Z,20.50
2019-04-27T10:35:41.556Z,20.50
2019-04-27T10:38:07.033Z,20.70
2019-04-27T10:40:32.409Z,20.70
2019-04-27T10:42:57.778Z,21.00
2019-04-27T10:45:23.178Z,21.20
2019-04-27T10:47:49.635Z,21.40
2019-04-27T10:50:17.054Z,21.20
2019-04-27T10:52:52.781Z,21.30
2019-04-27T10:55:10.026Z,21.30
2019-04-27T10:57:35.534Z,21.50
2019-04-27T11:00:01.207Z,21.70
2019-04-27T11:02:26.654Z,21.90
2019-04-27T11:05:00.964Z,21.80
2019-04-27T11:07:32.241Z,21.80
2019-04-27T11:09:57.775Z,21.90
2019-04-27T11:12:23.129Z,22.10
2019-04-27T11:14:48.483Z,22.20
2019-04-27T11:17:14.028Z,22.40
2019-04-27T11:19:39.426Z,22.00
2019-04-27T11:22:07.071Z,21.90
2019-04-27T11:24:31.814Z,22.10
2019-04-27T11:26:57.154Z,22.10
2019-04-27T11:29:22.630Z,22.10
2019-04-27T11:31:48.094Z,22.30
2019-04-27T11:34:13.463Z,22.20
2019-04-27T11:36:57.777Z,22.40
2019-04-27T11:39:23.895Z,22.40
2019-04-27T11:41:49.269Z,22.70
2019-04-27T11:44:15.287Z,22.50
2019-04-27T11:46:41.901Z,22.20
2019-04-27T11:49:07.798Z,22.50
2019-04-27T11:51:33.159Z,22.50
2019-04-27T11:53:59.305Z,22.50
2019-04-27T11:56:24.673Z,22.70
2019-04-27T11:58:50.039Z,22.70
2019-04-27T12:01:15.990Z,22.90
2019-04-27T12:03:41.378Z,22.70
2019-04-27T12:06:06.802Z,22.90
2019-04-27T12:08:32.170Z,22.80
2019-04-27T12:10:57.547Z,23.10
2019-04-27T12:13:22.933Z,22.80
2019-04-27T12:15:48.406Z,22.30
2019-04-27T12:18:13.770Z,22.30
2019-04-27T12:20:39.173Z,22.50
2019-04-27T12:23:06.360Z,22.70
2019-04-27T12:25:31.554Z,22.70
2019-04-27T12:28:15.107Z,23.00
2019-04-27T12:31:02.426Z,22.90
2019-04-27T12:33:28.269Z,23.30
2019-04-27T12:35:56.754Z,23.30
2019-04-27T12:38:22.385Z,23.70
2019-04-27T12:40:47.877Z,23.20
2019-04-27T12:43:13.234Z,23.70
2019-04-27T12:45:40.394Z,23.80
2019-04-27T12:48:05.606Z,23.80
2019-04-27T12:50:31.781Z,23.80
2019-04-27T12:53:00.718Z,23.90
2019-04-27T12:55:57.150Z,23.90
2019-04-27T12:58:41.506Z,23.90
2019-04-27T13:01:08.646Z,24.00
2019-04-27T13:03:34.017Z,23.50
2019-04-27T13:05:59.769Z,23.60
2019-04-27T13:08:26.047Z,23.30
2019-04-27T13:10:51.615Z,23.00
2019-04-27T13:13:16.975Z,23.00
2019-04-27T13:15:42.370Z,23.10
2019-04-27T13:18:07.731Z,23.10
2019-04-27T13:20:33.113Z,23.10
2019-04-27T13:22:58.596Z,23.00
2019-04-27T13:25:24.045Z,23.00
2019-04-27T13:27:51.109Z,22.90
2019-04-27T13:30:16.585Z,22.60
2019-04-27T13:32:41.928Z,22.20
2019-04-27T13:35:07.777Z,22.20
2019-04-27T13:37:43.200Z,22.20
2019-04-27T13:40:09.935Z,22.00
2019-04-27T13:42:38.601Z,22.00
2019-04-27T13:45:06.710Z,22.10
2019-04-27T13:47:50.654Z,22.00
2019-04-27T13:50:24.127Z,22.20
2019-04-27T13:52:50.545Z,22.20
2019-04-27T13:55:16.011Z,22.10
2019-04-27T13:57:50.083Z,22.20
2019-04-27T14:00:09.582Z,22.00
2019-04-27T14:02:34.970Z,22.00
2019-04-27T14:05:00.309Z,22.00
2019-04-27T14:07:26.700Z,21.70
2019-04-27T14:09:52.469Z,21.50
2019-04-27T14:12:22.365Z,21.60
2019-04-27T14:14:49.005Z,21.70
2019-04-27T14:17:14.607Z,21.80
2019-04-27T14:19:40.062Z,21.80
2019-04-27T14:22:05.551Z,21.60
2019-04-27T14:24:41.103Z,21.60
2019-04-27T14:27:07.805Z,21.60
2019-04-27T14:29:33.615Z,21.20
2019-04-27T14:31:59.043Z,21.00
2019-04-27T14:34:24.473Z,21.00
2019-04-27T14:36:49.808Z,20.80
2019-04-27T14:39:15.698Z,20.90
2019-04-27T14:41:41.074Z,20.90
2019-04-27T14:44:08.784Z,20.90
2019-04-27T14:46:33.600Z,21.00
2019-04-27T14:48:58.940Z,20.90
2019-04-27T14:51:24.298Z,20.90
2019-04-27T14:53:49.681Z,20.90
2019-04-27T14:56:15.026Z,20.80
2019-04-27T14:58:40.391Z,20.70
2019-04-27T15:01:05.873Z,20.80
2019-04-27T15:03:31.223Z,21.00
2019-04-27T15:05:57.629Z,21.00
2019-04-27T15:08:23.183Z,20.80
2019-04-27T15:10:48.565Z,20.80
2019-04-27T15:13:14.010Z,20.60
2019-04-27T15:15:39.841Z,20.50
2019-04-27T15:18:05.624Z,20.50
2019-04-27T15:20:39.199Z,20.40
2019-04-27T15:23:03.460Z,20.50
2019-04-27T15:25:35.026Z,20.60
2019-04-27T15:28:01.280Z,20.60
2019-04-27T15:30:44.427Z,20.80
2019-04-27T15:33:50.828Z,21.00
2019-04-27T15:36:22.678Z,21.10
2019-04-27T15:38:51.328Z,21.20
2019-04-27T15:41:24.347Z,21.30
2019-04-27T15:43:49.477Z,21.20
2019-04-27T15:46:14.868Z,21.00
2019-04-27T15:48:40.258Z,21.00
2019-04-27T15:51:14.644Z,21.00
2019-04-27T15:53:32.681Z,21.00
2019-04-27T15:56:00.849Z,20.90
2019-04-27T15:58:26.183Z,20.70
2019-04-27T16:00:56.572Z,20.80
2019-04-27T16:03:22.707Z,20.80
2019-04-27T16:05:45.697Z,20.50
2019-04-27T16:08:15.302Z,20.30
2019-04-27T16:10:40.261Z,20.20
2019-04-27T16:13:07.261Z,20.10
2019-04-27T16:15:32.232Z,19.90
2019-04-27T16:17:58.619Z,19.90
2019-04-27T16:20:30.211Z,20.00
2019-04-27T16:22:51.143Z,20.00
2019-04-27T16:25:18.577Z,19.90
2019-04-27T16:27:46.304Z,19.90
2019-04-27T16:30:17.936Z,19.90
2019-04-27T16:32:40.366Z,19.80
2019-04-27T16:35:09.665Z,19.90
2019-04-27T16:38:03.066Z,19.80
2019-04-27T16:40:30.113Z,19.80
2019-04-27T16:42:58.390Z,19.60
2019-04-27T16:45:27.135Z,19.50
2019-04-27T16:47:52.131Z,19.40
2019-04-27T16:50:19.696Z,19.40
2019-04-27T16:52:50.769Z,19.40
2019-04-27T16:55:12.030Z,19.50
2019-04-27T16:57:39.970Z,19.50
2019-04-27T17:00:08.256Z,19.50
2019-04-27T17:02:34.405Z,19.40
2019-04-27T17:04:59.960Z,19.40
2019-04-27T17:07:30.212Z,19.30
2019-04-27T17:09:52.302Z,19.20
2019-04-27T17:12:18.479Z,19.30
2019-04-27T17:15:10.634Z,19.10
2019-04-27T17:17:52.005Z,19.10
2019-04-27T17:20:21.124Z,19.10
2019-04-27T17:22:45.677Z,19.00
2019-04-27T17:25:15.341Z,19.10
2019-04-27T17:27:43.851Z,19.00
2019-04-27T17:30:09.607Z,19.00
2019-04-27T17:32:55.615Z,18.80
2019-04-27T17:35:21.101Z,18.70
2019-04-27T17:37:46.434Z,18.70
2019-04-27T17:40:15.165Z,18.60
2019-04-27T17:42:39.343Z,18.50
2019-04-27T17:45:05.385Z,18.60
2019-04-27T17:47:30.917Z,18.40
2019-04-27T17:49:56.245Z,18.30
2019-04-27T17:52:21.594Z,18.20
2019-04-27T17:54:48.461Z,18.20
2019-04-27T17:57:13.857Z,18.10
2019-04-27T17:59:39.220Z,18.00
2019-04-27T18:02:04.815Z,18.00
2019-04-27T18:04:32.889Z,17.90
2019-04-27T18:07:02.101Z,17.90
2019-04-27T18:09:25.533Z,17.90
2019-04-27T18:11:50.886Z,17.80
2019-04-27T18:14:16.322Z,17.80
2019-04-27T18:16:41.795Z,17.70
2019-04-27T18:19:26.074Z,17.70
2019-04-27T18:22:02.546Z,17.60
2019-04-27T18:24:33.899Z,17.60
2019-04-27T18:27:09.069Z,17.60
2019-04-27T18:29:34.570Z,17.50
2019-04-27T18:31:59.923Z,17.50
2019-04-27T18:34:25.302Z,17.40
2019-04-27T18:36:50.686Z,17.40
2019-04-27T18:39:16.060Z,17.30
2019-04-27T18:41:49.224Z,17.30
2019-04-27T18:44:11.246Z,17.20
2019-04-27T18:46:38.398Z,17.20
2019-04-27T18:49:12.338Z,17.10
2019-04-27T18:52:06.555Z,17.10
2019-04-27T18:54:33.157Z,17.00
2019-04-27T18:57:02.850Z,16.90
2019-04-27T18:59:28.814Z,16.90
2019-04-27T19:01:54.251Z,16.80
2019-04-27T19:04:19.593Z,16.80
2019-04-27T19:06:44.941Z,16.70
2019-04-27T19:09:10.627Z,16.50
2019-04-27T19:11:38.275Z,16.40
2019-04-27T19:14:04.248Z,16.40
2019-04-27T19:16:29.657Z,16.30
2019-04-27T19:18:55.014Z,16.30
2019-04-27T19:21:20.375Z,16.20
2019-04-27T19:23:45.761Z,16.10
2019-04-27T19:26:23.061Z,16.10
2019-04-27T19:29:13.650Z,16.00
2019-04-27T19:31:43.514Z,16.00
2019-04-27T19:34:08.902Z,15.90
2019-04-27T19:36:34.294Z,15.80
2019-04-27T19:38:59.650Z,15.70
2019-04-27T19:41:25.013Z,15.70
2019-04-27T19:43:50.502Z,15.60
2019-04-27T19:46:15.839Z,15.60
2019-04-27T19:48:41.211Z,15.50
2019-04-27T19:51:06.582Z,15.50
2019-04-27T19:53:31.926Z,15.40
2019-04-27T19:56:03.064Z,15.30
2019-04-27T19:58:29.990Z,15.20
2019-04-27T20:01:11.491Z,15.10
2019-04-27T20:03:34.893Z,15.00
2019-04-27T20:06:00.255Z,15.00
2019-04-27T20:08:29.744Z,14.90
2019-04-27T20:10:55.162Z,14.90
2019-04-27T20:13:21.991Z,14.80
2019-04-27T20:15:47.540Z,14.80
2019-04-27T20:18:12.890Z,14.70
2019-04-27T20:20:39.302Z,14.70
2019-04-27T20:23:04.778Z,14.60
2019-04-27T20:25:31.320Z,14.50
2019-04-27T20:27:56.862Z,14.40
2019-04-27T20:30:22.205Z,14.30
2019-04-27T20:32:47.722Z,14.30
2019-04-27T20:35:13.239Z,14.20
2019-04-27T20:37:38.652Z,14.20
2019-04-27T20:40:04.078Z,14.10
2019-04-27T20:42:31.474Z,14.10
2019-04-27T20:44:56.869Z,14.10
2019-04-27T20:47:22.208Z,14.00
2019-04-27T20:49:47.586Z,13.90
2019-04-27T20:52:34.629Z,13.80
2019-04-27T20:55:01.447Z,13.80
2019-04-27T20:57:27.058Z,13.70
2019-04-27T20:59:52.542Z,13.60
2019-04-27T21:02:42.174Z,13.60
2019-04-27T21:05:31.016Z,13.50
2019-04-27T21:08:01.430Z,13.50
2019-04-27T21:10:26.826Z,13.40
2019-04-27T21:12:52.247Z,13.40
2019-04-27T21:15:17.600Z,13.30
2019-04-27T21:17:43.003Z,13.30
2019-04-27T21:20:08.454Z,13.20
2019-04-27T21:22:33.810Z,13.20
2019-04-27T21:24:59.193Z,13.10
2019-04-27T21:27:25.037Z,13.00
2019-04-27T21:29:51.595Z,12.90
2019-04-27T21:32:17.523Z,12.90
2019-04-27T21:34:42.882Z,12.90
2019-04-27T21:37:08.274Z,12.80
2019-04-27T21:39:33.638Z,12.80
2019-04-27T21:42:00.869Z,12.80
2019-04-27T21:44:26.007Z,12.70
2019-04-27T21:46:51.915Z,12.70
2019-04-27T21:49:19.037Z,12.70
2019-04-27T21:52:02.190Z,12.60
2019-04-27T21:54:28.098Z,12.50
2019-04-27T21:56:53.435Z,12.50
2019-04-27T21:59:18.814Z,12.50
2019-04-27T22:01:45.185Z,12.40
2019-04-27T22:04:11.820Z,12.40
2019-04-27T22:06:37.250Z,12.30
2019-04-27T22:09:02.658Z,12.20
2019-04-27T22:11:29.622Z,12.20
2019-04-27T22:13:55.052Z,12.20
2019-04-27T22:16:21.322Z,12.10
2019-04-27T22:18:46.782Z,12.10
2019-04-27T22:21:12.220Z,12.10
2019-04-27T22:24:00.997Z,12.00
2019-04-27T22:26:26.584Z,12.00
2019-04-27T22:28:52.218Z,11.90
2019-04-27T22:31:17.720Z,11.90
2019-04-27T22:33:43.108Z,11.90
2019-04-27T22:36:08.456Z,11.80
2019-04-27T22:38:33.918Z,11.80
2019-04-27T22:41:18.210Z,11.80
2019-04-27T22:43:56.153Z,11.70
2019-04-27T22:46:22.621Z,11.70
2019-04-27T22:48:49.153Z,11.70
2019-04-27T22:51:14.549Z,11.70
2019-04-27T22:53:41.082Z,11.70
2019-04-27T22:56:18.192Z,11.60
2019-04-27T22:58:57.491Z,11.60
2019-04-27T23:01:21.140Z,11.60
2019-04-27T23:03:47.087Z,11.50
2019-04-27T23:06:12.426Z,11.50
2019-04-27T23:08:37.838Z,11.40
2019-04-27T23:11:03.494Z,11.40
2019-04-27T23:13:28.869Z,11.40
2019-04-27T23:15:56.179Z,11.40
2019-04-27T23:18:22.655Z,11.40
2019-04-27T23:20:48.046Z,11.40
2019-04-27T23:23:13.397Z,11.30
2019-04-27T23:25:38.789Z,11.30
2019-04-27T23:28:04.174Z,11.30
2019-04-27T23:30:51.483Z,11.20
2019-04-27T23:33:16.896Z,11.20
2019-04-27T23:35:42.264Z,11.20
2019-04-27T23:38:15.608Z,11.20
2019-04-27T23:40:34.735Z,11.20
2019-04-27T23:43:01.568Z,11.10
2019-04-27T23:45:27.162Z,11.10
2019-04-27T23:47:52.522Z,11.10
2019-04-27T23:50:17.893Z,11.10
2019-04-27T23:53:17.342Z,11.10
2019-04-27T23:55:42.694Z,11.10
2019-04-27T23:58:08.102Z,11.20
